MDPCMBPV

Guest
Details From MDPC - Punta Cana Intl
To MBPV - Providenciales
Flight Number -
Tags generated
Created
Modified
Stats Distance 297 nm / 549 km
Max Altitude 34,100 ft / 10,394 m
Waypoints 6
Social Downloads 2
Likes 0
Share VATSIM

Download

Looking for another format? Having issues loading an existing format? Contact us
Advertisement - Login to hide

Notes

Basic altitude profile: - Ascent Rate: 2500ft/min - Ascent Speed: 250kts - Cruise Altitude: 35000ft - Cruise Speed: 420kts - Descent Rate: 1500ft/min - Descent Speed: 250kts Options: - Use NATs: yes - Use PACOTS: yes - Use low airways: yes - Use high airways: yes

Route

MDPC ITROP UT09 PISOS UG446 BESAS G446 PAMMS MBPV

ID Type Via Altitude Latitude Longitude Leg Dist Tot Dist Heading (true) Name
O MDPC APT - 0 ft / 0 m 18.57057˚ -68.36613˚ - 0 nm - Punta Cana Intl
ITROP FIX - 34,000 ft / 10,363 m 19.81667˚ -69.69000˚ 106 nm 106 nm 315° / 315° -
PISOS FIX UT09 (AWY-HI) 34,100 ft / 10,394 m 20.08722˚ -70.16361˚ 31 nm 137 nm 301° / 301° -
BESAS FIX UG446 (AWY-HI) 30,200 ft / 9,205 m 20.33706˚ -70.34344˚ 18 nm 155 nm 326° / 326° -
PAMMS FIX G446 (AWY-HI) 20,000 ft / 6,096 m 20.99712˚ -70.81441˚ 47 nm 203 nm 326° / 326° -
O MBPV APT - 0 ft / 0 m 21.77360˚ -72.26590˚ 93 nm 296 nm 300° / 300° Providenciales

Altitude Profile

Advertisement - Login to hide

Weather


0- 5 10 15 20 25 30 35+ Temperature / ° C

Clouds and Precipitation
Forecast for 2018-05-23 00:00 UTC. Updated 20 minutes ago

Ground ~20,000 ft ~40,000 ft Winds

MDPC

Details ICAO MDPC (PUJ)
Name Punta Cana Intl
Region Dominican Republic
Timezone America/Santo_Domingo (UTC-4.0)
Stats Elevation 46 ft / 14 m (AMSL)
Location 18.570574° -68.366130°
Runways 2
Magnetic Variation 12.206° W

METAR

MDPC 222300Z 08012KT 9999 FEW018 SCT300 26/23 Q1016 NOSIG

Decode

TAF

Not found

Departure Runways

ID Width Length Bearing (true) Bearing (mag) Surface Threshold Offset Overrun Length
08 148 ft / 45 m 10,110 ft / 3,082 m 74.20° 86.41° Asphalt 0 ft / 0 m 374 ft / 114 m
09 148 ft / 45 m 10,163 ft / 3,098 m 84.79° 97.00° Asphalt 0 ft / 0 m 374 ft / 114 m
26 148 ft / 45 m 10,110 ft / 3,082 m 254.21° 266.42° Asphalt 0 ft / 0 m 374 ft / 114 m
27 148 ft / 45 m 10,163 ft / 3,098 m 264.80° 277.01° Asphalt 0 ft / 0 m 374 ft / 114 m

MBPV

Details ICAO MBPV (PLS)
Name Providenciales
Region Turks and Caicos Islands
Timezone America/Grand_Turk (UTC-4.0)
Stats Elevation 15 ft / 5 m (AMSL)
Location 21.773600° -72.265900°
Runways 1
Magnetic Variation 10.640° W

METAR

MBPV 222300Z 10010KT 9999 SCT012CB BKN040 26/22 Q1015

Decode

TAF

Not found

Destination Runways

ID Width Length Bearing (true) Bearing (mag) Surface Threshold Offset Overrun Length
10 148 ft / 45 m 7,584 ft / 2,312 m 93.01° 103.65° Asphalt 600 ft / 183 m 200 ft / 61 m
28 148 ft / 45 m 7,584 ft / 2,312 m 273.02° 283.66° Asphalt 0 ft / 0 m 200 ft / 61 m

Popular Alternatives